createdAt,value
2018-06-21T00:00:57.739Z,10.73
2018-06-21T00:03:26.169Z,10.73
2018-06-21T00:05:54.637Z,10.33
2018-06-21T00:08:23.364Z,11.50
2018-06-21T00:10:51.725Z,10.33
2018-06-21T00:13:20.291Z,10.07
2018-06-21T00:15:48.996Z,11.03
2018-06-21T00:18:17.411Z,10.60
2018-06-21T00:20:46.213Z,10.60
2018-06-21T00:23:14.601Z,10.03
2018-06-21T00:25:43.099Z,10.60
2018-06-21T00:28:11.825Z,10.50
2018-06-21T00:30:40.362Z,11.20
2018-06-21T00:33:08.884Z,11.00
2018-06-21T00:35:37.740Z,10.27
2018-06-21T00:38:07.065Z,9.90
2018-06-21T00:40:35.499Z,9.40
2018-06-21T00:43:04.194Z,9.83
2018-06-21T00:45:35.600Z,10.20
2018-06-21T00:48:05.825Z,10.90
2018-06-21T00:50:34.276Z,10.00
2018-06-21T00:53:03.588Z,9.57
2018-06-21T00:55:41.244Z,9.47
2018-06-21T00:58:09.794Z,11.03
2018-06-21T01:00:38.166Z,9.60
2018-06-21T01:03:06.700Z,9.83
2018-06-21T01:05:35.076Z,9.97
2018-06-21T01:08:03.678Z,10.23
2018-06-21T01:10:32.053Z,10.13
2018-06-21T01:13:00.428Z,10.30
2018-06-21T01:15:29.107Z,9.50
2018-06-21T01:17:58.086Z,10.07
2018-06-21T01:20:26.965Z,10.03
2018-06-21T01:22:55.890Z,10.13
2018-06-21T01:25:24.568Z,9.33
2018-06-21T01:27:53.384Z,9.80
2018-06-21T01:30:21.987Z,10.73
2018-06-21T01:32:50.627Z,10.63
2018-06-21T01:35:19.105Z,10.30
2018-06-21T01:37:47.518Z,12.13
2018-06-21T01:40:16.015Z,9.60
2018-06-21T01:42:44.465Z,10.83
2018-06-21T01:45:13.514Z,11.20
2018-06-21T01:47:42.045Z,10.50
2018-06-21T01:50:10.706Z,9.87
2018-06-21T01:52:39.157Z,10.00
2018-06-21T01:55:07.581Z,9.07
2018-06-21T01:57:35.921Z,8.63
2018-06-21T02:00:04.473Z,8.67
2018-06-21T02:02:33.034Z,8.90
2018-06-21T02:05:01.378Z,8.37
2018-06-21T02:07:30.091Z,9.03
2018-06-21T02:09:58.618Z,8.83
2018-06-21T02:12:28.098Z,8.43
2018-06-21T02:14:56.583Z,8.13
2018-06-21T02:17:25.095Z,8.80
2018-06-21T02:19:53.975Z,9.43
2018-06-21T02:22:22.291Z,8.10
2018-06-21T02:24:50.709Z,7.60
2018-06-21T02:27:19.188Z,8.13
2018-06-21T02:29:47.595Z,8.50
2018-06-21T02:32:16.196Z,9.60
2018-06-21T02:34:44.678Z,9.60
2018-06-21T02:37:13.138Z,9.50
2018-06-21T02:39:41.434Z,8.90
2018-06-21T02:42:09.973Z,9.07
2018-06-21T02:44:38.402Z,10.03
2018-06-21T02:47:07.281Z,10.57
2018-06-21T02:49:35.686Z,9.90
2018-06-21T02:52:04.152Z,10.50
2018-06-21T02:54:32.664Z,9.43
2018-06-21T02:57:00.998Z,9.50
2018-06-21T02:59:29.399Z,9.90
2018-06-21T03:01:57.839Z,10.47
2018-06-21T03:04:26.224Z,10.13
2018-06-21T03:06:54.765Z,10.97
2018-06-21T03:09:23.455Z,10.23
2018-06-21T03:11:51.874Z,11.37
2018-06-21T03:14:20.196Z,10.10
2018-06-21T03:16:48.737Z,10.90
2018-06-21T03:19:17.147Z,10.73
2018-06-21T03:21:45.691Z,10.10
2018-06-21T03:24:14.164Z,9.93
2018-06-21T03:26:42.502Z,10.13
2018-06-21T03:29:10.983Z,10.03
2018-06-21T03:31:39.400Z,10.13
2018-06-21T03:34:07.782Z,9.90
2018-06-21T03:36:36.261Z,9.10
2018-06-21T03:39:05.918Z,10.60
2018-06-21T03:41:34.969Z,9.90
2018-06-21T03:44:03.657Z,10.70
2018-06-21T03:46:32.138Z,9.43
2018-06-21T03:49:00.528Z,9.33
2018-06-21T03:51:28.913Z,9.07
2018-06-21T03:53:57.061Z,10.70
2018-06-21T03:56:25.772Z,9.57
2018-06-21T03:58:54.152Z,9.50
2018-06-21T04:01:22.557Z,9.67
2018-06-21T04:03:50.951Z,9.63
2018-06-21T04:06:19.590Z,10.97
2018-06-21T04:08:48.055Z,10.80
2018-06-21T04:11:16.590Z,10.40
2018-06-21T04:13:44.686Z,9.40
2018-06-21T04:16:13.360Z,9.93
2018-06-21T04:18:41.833Z,9.17
2018-06-21T04:21:10.318Z,9.83
2018-06-21T04:23:38.687Z,8.93
2018-06-21T04:26:07.946Z,9.00
2018-06-21T04:28:36.564Z,10.20
2018-06-21T04:31:06.292Z,9.00
2018-06-21T04:33:34.828Z,9.70
2018-06-21T04:36:03.360Z,9.57
2018-06-21T04:38:32.152Z,10.30
2018-06-21T04:41:00.268Z,10.67
2018-06-21T04:43:28.677Z,11.03
2018-06-21T04:45:58.823Z,10.30
2018-06-21T04:48:27.298Z,11.93
2018-06-21T04:50:55.938Z,10.20
2018-06-21T04:53:24.418Z,10.10
2018-06-21T04:55:53.305Z,10.20
2018-06-21T04:58:22.054Z,11.33
2018-06-21T05:00:50.711Z,9.80
2018-06-21T05:03:19.148Z,11.57
2018-06-21T05:05:47.602Z,10.80
2018-06-21T05:08:16.816Z,10.93
2018-06-21T05:10:46.496Z,11.07
2018-06-21T05:13:15.360Z,9.90
2018-06-21T05:15:43.734Z,10.43
2018-06-21T05:18:12.327Z,10.50
2018-06-21T05:20:40.832Z,10.50
2018-06-21T05:23:10.166Z,11.60
2018-06-21T05:25:38.672Z,11.90
2018-06-21T05:28:07.746Z,11.80
2018-06-21T05:30:36.525Z,13.43
2018-06-21T05:33:04.959Z,13.23
2018-06-21T05:35:33.783Z,12.03
2018-06-21T05:38:02.550Z,12.03
2018-06-21T05:40:32.971Z,12.40
2018-06-21T05:43:02.161Z,13.43
2018-06-21T05:45:31.088Z,13.03
2018-06-21T05:48:00.704Z,12.57
2018-06-21T05:50:30.466Z,15.23
2018-06-21T05:53:02.198Z,19.17
2018-06-21T05:55:32.009Z,27.20
2018-06-21T05:58:02.135Z,31.00
2018-06-21T06:00:30.992Z,36.50
2018-06-21T06:02:59.410Z,35.93
2018-06-21T06:05:27.774Z,34.67
2018-06-21T06:07:56.488Z,36.80
2018-06-21T06:10:24.878Z,37.20
2018-06-21T06:12:53.282Z,39.60
2018-06-21T06:15:22.214Z,38.10
2018-06-21T06:17:51.453Z,41.30
2018-06-21T06:20:20.046Z,41.80
2018-06-21T06:22:49.585Z,44.13
2018-06-21T06:25:18.069Z,45.33
2018-06-21T06:27:46.531Z,49.73
2018-06-21T06:30:15.857Z,46.07
2018-06-21T06:32:45.736Z,46.77
2018-06-21T06:35:15.821Z,46.80
2018-06-21T06:37:44.899Z,44.07
2018-06-21T06:40:14.515Z,47.30
2018-06-21T06:42:43.377Z,34.30
2018-06-21T06:45:12.765Z,16.83
2018-06-21T06:47:42.782Z,19.17
2018-06-21T06:50:12.304Z,16.33
2018-06-21T06:52:41.583Z,16.20
2018-06-21T06:55:12.286Z,15.37
2018-06-21T06:57:41.361Z,13.93
2018-06-21T07:00:10.378Z,13.43
2018-06-21T07:02:39.961Z,13.87
2018-06-21T07:05:09.293Z,13.60
2018-06-21T07:07:40.135Z,13.80
2018-06-21T07:10:10.849Z,14.40
2018-06-21T07:12:44.137Z,14.90
2018-06-21T07:15:15.786Z,15.23
2018-06-21T07:17:45.230Z,16.40
2018-06-21T07:20:13.917Z,15.30
2018-06-21T07:22:42.907Z,15.63
2018-06-21T07:25:11.400Z,15.03
2018-06-21T07:27:41.312Z,13.17
2018-06-21T07:30:10.153Z,13.43
2018-06-21T07:32:38.653Z,14.63
2018-06-21T07:35:08.952Z,14.87
2018-06-21T07:37:38.400Z,16.40
2018-06-21T07:40:07.957Z,15.53
2018-06-21T07:42:36.942Z,16.33
2018-06-21T07:45:07.386Z,13.67
2018-06-21T07:47:35.784Z,13.17
2018-06-21T07:50:04.281Z,12.70
2018-06-21T07:52:33.566Z,12.00
2018-06-21T07:55:02.309Z,12.63
2018-06-21T07:57:32.319Z,12.10
2018-06-21T08:00:01.849Z,12.77
2018-06-21T08:02:32.345Z,13.00
2018-06-21T08:05:03.588Z,13.03
2018-06-21T08:07:32.592Z,11.80
2018-06-21T08:10:02.041Z,11.13
2018-06-21T08:12:30.656Z,10.30
2018-06-21T08:14:59.335Z,10.60
2018-06-21T08:17:29.718Z,10.10
2018-06-21T08:19:58.619Z,10.50
2018-06-21T08:22:27.912Z,8.13
2018-06-21T08:24:56.666Z,8.43
2018-06-21T08:27:26.095Z,7.40
2018-06-21T08:29:55.398Z,6.63
2018-06-21T08:32:24.759Z,7.23
2018-06-21T08:34:54.795Z,6.80
2018-06-21T08:37:24.462Z,5.20
2018-06-21T08:39:54.889Z,4.20
2018-06-21T08:42:24.259Z,4.30
2018-06-21T08:44:55.195Z,3.40
2018-06-21T08:47:24.034Z,3.07
2018-06-21T08:49:52.617Z,2.97
2018-06-21T08:52:21.312Z,3.13
2018-06-21T08:54:49.976Z,2.40
2018-06-21T08:57:18.420Z,2.83
2018-06-21T08:59:47.110Z,2.63
2018-06-21T09:02:15.689Z,3.27
2018-06-21T09:04:44.544Z,2.30
2018-06-21T09:07:14.346Z,2.13
2018-06-21T09:09:43.450Z,2.10
2018-06-21T09:12:14.331Z,2.90
2018-06-21T09:14:42.820Z,2.80
2018-06-21T09:17:11.214Z,2.40
2018-06-21T09:19:40.896Z,3.27
2018-06-21T09:22:11.973Z,2.70
2018-06-21T09:24:42.775Z,2.23
2018-06-21T09:27:13.445Z,2.40
2018-06-21T09:29:42.050Z,2.33
2018-06-21T09:32:13.200Z,2.67
2018-06-21T09:34:42.036Z,1.90
2018-06-21T09:37:11.455Z,2.13
2018-06-21T09:39:43.980Z,2.17
2018-06-21T09:42:16.449Z,2.40
2018-06-21T09:44:50.132Z,2.43
2018-06-21T09:47:23.813Z,2.10
2018-06-21T09:49:53.127Z,2.07
2018-06-21T09:52:21.439Z,1.70
2018-06-21T09:54:51.552Z,1.50
2018-06-21T09:57:21.435Z,1.93
2018-06-21T09:59:50.436Z,2.00
2018-06-21T10:02:18.912Z,1.70
2018-06-21T10:04:47.660Z,2.13
2018-06-21T10:07:16.831Z,2.40
2018-06-21T10:09:46.289Z,1.90
2018-06-21T10:12:15.098Z,2.60
2018-06-21T10:14:44.038Z,2.37
2018-06-21T10:17:12.573Z,2.37
2018-06-21T10:19:42.084Z,2.77
2018-06-21T10:22:10.504Z,3.33
2018-06-21T10:24:39.428Z,2.83
2018-06-21T10:27:07.925Z,3.47
2018-06-21T10:29:37.204Z,2.53
2018-06-21T10:32:05.711Z,2.77
2018-06-21T10:34:35.130Z,2.37
2018-06-21T10:37:03.639Z,2.10
2018-06-21T10:39:32.245Z,1.90
2018-06-21T10:42:01.027Z,2.60
2018-06-21T10:44:29.446Z,2.20
2018-06-21T10:46:58.044Z,1.60
2018-06-21T10:49:29.582Z,2.47
2018-06-21T10:51:58.133Z,2.20
2018-06-21T10:54:26.514Z,1.60
2018-06-21T10:56:54.974Z,2.37
2018-06-21T10:59:23.419Z,2.10
2018-06-21T11:01:51.906Z,1.90
2018-06-21T11:04:21.206Z,1.97
2018-06-21T11:06:49.814Z,2.20
2018-06-21T11:09:18.439Z,1.67
2018-06-21T11:11:47.165Z,1.90
2018-06-21T11:14:15.670Z,1.50
2018-06-21T11:16:44.120Z,1.70
2018-06-21T11:19:13.057Z,1.37
2018-06-21T11:21:41.533Z,1.63
2018-06-21T11:24:10.003Z,1.40
2018-06-21T11:26:38.512Z,1.53
2018-06-21T11:29:07.049Z,1.33
2018-06-21T11:31:36.782Z,1.60
2018-06-21T11:34:05.278Z,1.33
2018-06-21T11:36:34.100Z,0.97
2018-06-21T11:39:02.587Z,1.17
2018-06-21T11:41:32.151Z,1.20
2018-06-21T11:44:01.398Z,1.60
2018-06-21T11:46:29.997Z,1.30
2018-06-21T11:48:59.271Z,1.63
2018-06-21T11:51:27.957Z,1.20
2018-06-21T11:53:57.397Z,1.37
2018-06-21T11:56:25.773Z,1.10
2018-06-21T11:58:54.364Z,1.37
2018-06-21T12:01:22.794Z,1.07
2018-06-21T12:03:54.153Z,0.97
2018-06-21T12:06:22.867Z,0.70
2018-06-21T12:08:51.480Z,1.17
2018-06-21T12:11:20.070Z,1.40
2018-06-21T12:13:48.555Z,0.93
2018-06-21T12:16:17.027Z,1.77
2018-06-21T12:18:45.464Z,1.20
2018-06-21T12:21:13.847Z,0.93
2018-06-21T12:23:43.395Z,1.00
2018-06-21T12:26:16.072Z,0.90
2018-06-21T12:28:48.305Z,0.70
2018-06-21T12:34:01.559Z,1.40
2018-06-21T12:36:36.627Z,0.93
2018-06-21T12:39:10.547Z,1.17
2018-06-21T12:41:39.552Z,0.90
2018-06-21T12:44:08.105Z,0.87
2018-06-21T12:46:36.915Z,0.80
2018-06-21T12:49:05.543Z,0.90
2018-06-21T12:51:34.046Z,1.27
2018-06-21T12:54:02.922Z,1.40
2018-06-21T12:56:31.885Z,0.93
2018-06-21T12:58:59.925Z,1.33
2018-06-21T13:01:28.424Z,0.80
2018-06-21T13:03:56.903Z,1.20
2018-06-21T13:06:25.387Z,1.17
2018-06-21T13:09:02.955Z,1.10
2018-06-21T13:11:40.503Z,1.67
2018-06-21T13:14:17.798Z,0.90
2018-06-21T13:16:46.249Z,1.20
2018-06-21T13:19:15.216Z,1.30
2018-06-21T13:21:43.815Z,0.73
2018-06-21T13:24:12.644Z,0.80
2018-06-21T13:26:41.269Z,1.00
2018-06-21T13:29:10.880Z,1.10
2018-06-21T13:31:39.687Z,1.43
2018-06-21T13:34:08.206Z,1.77
2018-06-21T13:36:37.381Z,1.30
2018-06-21T13:39:07.332Z,1.30
2018-06-21T13:41:35.494Z,1.13
2018-06-21T13:44:04.223Z,0.90
2018-06-21T13:46:32.820Z,1.80
2018-06-21T13:49:01.869Z,1.20
2018-06-21T13:51:30.329Z,1.00
2018-06-21T13:53:59.200Z,1.40
2018-06-21T13:56:29.344Z,1.43
2018-06-21T13:58:57.749Z,1.30
2018-06-21T14:01:26.289Z,0.97
2018-06-21T14:03:55.716Z,1.27
2018-06-21T14:06:24.825Z,1.43
2018-06-21T14:08:53.575Z,1.10
2018-06-21T14:11:22.879Z,1.53
2018-06-21T14:13:51.774Z,1.57
2018-06-21T14:16:20.274Z,0.80
2018-06-21T14:18:49.597Z,1.30
2018-06-21T14:21:18.721Z,1.00
2018-06-21T14:23:47.260Z,1.37
2018-06-21T14:26:16.722Z,1.20
2018-06-21T14:28:46.230Z,0.90
2018-06-21T14:31:17.856Z,0.90
2018-06-21T14:33:47.144Z,1.40
2018-06-21T14:36:20.189Z,1.23
2018-06-21T14:38:51.158Z,0.87
2018-06-21T14:41:23.892Z,1.33
2018-06-21T14:43:52.468Z,0.80
2018-06-21T14:46:21.377Z,1.23
2018-06-21T14:48:55.119Z,0.97
2018-06-21T14:51:24.476Z,1.60
2018-06-21T14:53:56.258Z,1.20
2018-06-21T14:56:28.478Z,0.90
2018-06-21T14:59:00.663Z,1.43
2018-06-21T15:01:29.926Z,1.73
2018-06-21T15:03:58.745Z,2.20
2018-06-21T15:06:27.285Z,1.70
2018-06-21T15:08:57.237Z,1.40
2018-06-21T15:11:26.395Z,1.00
2018-06-21T15:13:56.022Z,1.50
2018-06-21T15:16:25.119Z,1.00
2018-06-21T15:18:54.195Z,1.17
2018-06-21T15:21:22.972Z,1.47
2018-06-21T15:23:52.795Z,1.00
2018-06-21T15:26:23.234Z,1.53
2018-06-21T15:28:51.800Z,0.93
2018-06-21T15:31:20.320Z,1.30
2018-06-21T15:33:48.828Z,1.20
2018-06-21T15:36:17.292Z,1.17
2018-06-21T15:38:45.899Z,1.23
2018-06-21T15:41:14.960Z,1.83
2018-06-21T15:43:43.666Z,1.17
2018-06-21T15:46:12.498Z,1.13
2018-06-21T15:48:41.016Z,0.97
2018-06-21T15:51:10.406Z,1.17
2018-06-21T15:53:39.380Z,0.90
2018-06-21T15:56:10.787Z,1.00
2018-06-21T15:58:39.572Z,1.30
2018-06-21T16:01:08.459Z,1.40
2018-06-21T16:03:37.347Z,2.10
2018-06-21T16:06:06.084Z,1.33
2018-06-21T16:08:34.780Z,0.70
2018-06-21T16:11:04.585Z,1.43
2018-06-21T16:13:33.143Z,1.00
2018-06-21T16:16:01.785Z,1.07
2018-06-21T16:18:30.429Z,0.80
2018-06-21T16:20:59.286Z,1.10
2018-06-21T16:23:30.407Z,1.00
2018-06-21T16:25:58.899Z,1.47
2018-06-21T16:28:27.345Z,1.27
2018-06-21T16:30:57.709Z,1.20
2018-06-21T16:33:26.713Z,1.13
2018-06-21T16:35:55.306Z,1.70
2018-06-21T16:38:24.069Z,1.40
2018-06-21T16:40:52.743Z,4.07
2018-06-21T16:43:21.250Z,1.00
2018-06-21T16:45:49.859Z,0.70
2018-06-21T16:48:18.376Z,0.70
2018-06-21T16:50:47.152Z,0.70
2018-06-21T16:53:16.306Z,0.90
2018-06-21T16:55:44.738Z,0.70
2018-06-21T16:58:16.078Z,0.97
2018-06-21T17:00:45.180Z,1.70
2018-06-21T17:03:14.253Z,1.10
2018-06-21T17:05:42.671Z,0.50
2018-06-21T17:08:11.227Z,0.50
2018-06-21T17:10:39.712Z,0.80
2018-06-21T17:13:10.592Z,0.60
2018-06-21T17:15:39.817Z,0.63
2018-06-21T17:18:08.366Z,0.70
2018-06-21T17:20:37.312Z,1.20
2018-06-21T17:23:05.807Z,1.23
2018-06-21T17:25:35.586Z,0.87
2018-06-21T17:28:05.754Z,0.80
2018-06-21T17:30:35.738Z,0.70
2018-06-21T17:33:04.341Z,0.50
2018-06-21T17:35:32.997Z,0.67
2018-06-21T17:38:02.125Z,0.80
2018-06-21T17:40:30.848Z,0.53
2018-06-21T17:43:00.188Z,0.60
2018-06-21T17:45:29.293Z,0.73
2018-06-21T17:48:03.054Z,0.60
2018-06-21T17:50:32.928Z,0.60
2018-06-21T17:53:01.430Z,0.80
2018-06-21T17:55:30.137Z,0.60
2018-06-21T17:57:58.771Z,1.60
2018-06-21T18:00:28.170Z,1.40
2018-06-21T18:02:56.626Z,0.83
2018-06-21T18:05:25.417Z,1.00
2018-06-21T18:07:54.016Z,1.40
2018-06-21T18:10:22.575Z,1.10
2018-06-21T18:12:51.459Z,1.00
2018-06-21T18:15:19.909Z,1.20
2018-06-21T18:17:48.343Z,1.00
2018-06-21T18:20:18.486Z,1.10
2018-06-21T18:22:47.918Z,1.10
2018-06-21T18:25:16.709Z,1.30
2018-06-21T18:27:47.244Z,1.40
2018-06-21T18:30:19.007Z,1.00
2018-06-21T18:32:50.088Z,0.80
2018-06-21T18:35:20.338Z,1.07
2018-06-21T18:37:51.502Z,1.30
2018-06-21T18:40:21.691Z,1.10
2018-06-21T18:42:51.285Z,1.70
2018-06-21T18:45:20.458Z,1.27
2018-06-21T18:47:49.989Z,1.70
2018-06-21T18:50:19.160Z,1.70
2018-06-21T18:52:48.188Z,1.50
2018-06-21T18:55:20.402Z,1.17
2018-06-21T18:57:50.927Z,1.00
2018-06-21T19:00:20.044Z,1.43
2018-06-21T19:02:49.549Z,0.93
2018-06-21T19:05:20.916Z,2.47
2018-06-21T19:07:53.890Z,1.10
2018-06-21T19:10:27.996Z,1.40
2018-06-21T19:12:57.005Z,1.17
2018-06-21T19:15:26.013Z,2.57
2018-06-21T19:17:55.529Z,1.47
2018-06-21T19:20:24.529Z,1.23
2018-06-21T19:22:53.213Z,1.30
2018-06-21T19:25:21.695Z,1.80
2018-06-21T19:27:50.262Z,0.80
2018-06-21T19:30:19.064Z,0.70
2018-06-21T19:32:47.506Z,0.80
2018-06-21T19:35:16.086Z,0.90
2018-06-21T19:37:44.611Z,0.90
2018-06-21T19:40:13.409Z,1.90
2018-06-21T19:42:49.356Z,2.07
2018-06-21T19:45:21.353Z,1.70
2018-06-21T19:47:53.735Z,1.13
2018-06-21T19:50:25.190Z,1.10
2018-06-21T19:52:57.856Z,1.87
2018-06-21T19:55:28.161Z,1.50
2018-06-21T19:57:59.921Z,1.13
2018-06-21T20:00:29.858Z,1.60
2018-06-21T20:03:00.412Z,2.43
2018-06-21T20:05:32.036Z,1.67
2018-06-21T20:08:02.817Z,1.20
2018-06-21T20:10:34.300Z,1.47
2018-06-21T20:13:06.504Z,2.10
2018-06-21T20:15:44.775Z,1.60
2018-06-21T20:18:17.508Z,1.90
2018-06-21T20:20:50.675Z,1.73
2018-06-21T20:23:20.879Z,2.20
2018-06-21T20:25:52.856Z,1.80
2018-06-21T20:28:24.586Z,1.90
2018-06-21T20:30:54.417Z,1.57
2018-06-21T20:33:24.793Z,1.50
2018-06-21T20:35:53.766Z,2.20
2018-06-21T20:38:23.509Z,1.50
2018-06-21T20:40:52.129Z,3.17
2018-06-21T20:43:21.089Z,1.20
2018-06-21T20:45:51.182Z,1.27
2018-06-21T20:48:20.752Z,1.60
2018-06-21T20:50:50.263Z,2.73
2018-06-21T20:53:25.446Z,1.40
2018-06-21T20:55:54.213Z,1.73
2018-06-21T20:58:22.822Z,1.27
2018-06-21T21:00:53.553Z,2.00
2018-06-21T21:03:30.220Z,1.33
2018-06-21T21:05:58.973Z,1.77
2018-06-21T21:08:28.254Z,2.97
2018-06-21T21:10:57.736Z,1.70
2018-06-21T21:13:28.415Z,1.37
2018-06-21T21:15:57.782Z,2.07
2018-06-21T21:18:27.319Z,2.40
2018-06-21T21:20:59.157Z,1.80
2018-06-21T21:23:30.534Z,2.27
2018-06-21T21:26:01.176Z,1.83
2018-06-21T21:28:31.406Z,2.10
2018-06-21T21:30:59.828Z,1.93
2018-06-21T21:33:28.359Z,1.67
2018-06-21T21:35:58.530Z,2.30
2018-06-21T21:38:26.955Z,2.27
2018-06-21T21:40:55.459Z,2.67
2018-06-21T21:43:23.919Z,3.00
2018-06-21T21:45:52.467Z,2.27
2018-06-21T21:48:20.931Z,2.27
2018-06-21T21:50:49.540Z,2.30
2018-06-21T21:53:17.968Z,2.80
2018-06-21T21:55:46.589Z,3.50
2018-06-21T21:58:15.098Z,1.70
2018-06-21T22:00:46.368Z,2.23
2018-06-21T22:03:14.882Z,2.40
2018-06-21T22:05:44.670Z,1.97
2018-06-21T22:08:12.997Z,1.87
2018-06-21T22:10:43.166Z,1.67
2018-06-21T22:13:11.939Z,2.47
2018-06-21T22:15:40.469Z,3.90
2018-06-21T22:18:08.972Z,2.30
2018-06-21T22:20:38.882Z,3.17
2018-06-21T22:23:08.242Z,2.37
2018-06-21T22:25:36.844Z,2.17
2018-06-21T22:28:05.554Z,2.50
2018-06-21T22:30:34.305Z,2.60
2018-06-21T22:33:03.408Z,1.90
2018-06-21T22:35:31.963Z,2.27
2018-06-21T22:38:00.402Z,2.33
2018-06-21T22:40:28.837Z,2.63
2018-06-21T22:42:57.385Z,2.23
2018-06-21T22:45:26.037Z,2.87
2018-06-21T22:47:54.429Z,2.73
2018-06-21T22:50:22.806Z,3.23
2018-06-21T22:52:51.612Z,3.60
2018-06-21T22:55:20.111Z,4.80
2018-06-21T22:57:48.622Z,2.80
2018-06-21T23:00:17.538Z,3.57
2018-06-21T23:02:46.231Z,2.80
2018-06-21T23:05:15.029Z,2.50
2018-06-21T23:07:43.421Z,2.90
2018-06-21T23:10:11.885Z,3.07
2018-06-21T23:12:40.256Z,2.23
2018-06-21T23:15:08.638Z,3.50
2018-06-21T23:17:37.591Z,2.53
2018-06-21T23:20:06.131Z,2.53
2018-06-21T23:22:34.895Z,2.60
2018-06-21T23:25:04.190Z,2.90
2018-06-21T23:27:33.022Z,2.37
2018-06-21T23:30:01.400Z,3.00
2018-06-21T23:32:29.965Z,2.57
2018-06-21T23:34:58.451Z,2.23
2018-06-21T23:37:26.776Z,2.37
2018-06-21T23:39:55.300Z,2.60
2018-06-21T23:42:23.704Z,2.23
2018-06-21T23:44:52.834Z,2.27
2018-06-21T23:47:21.463Z,1.90
2018-06-21T23:49:49.947Z,2.90
2018-06-21T23:52:18.615Z,2.50
2018-06-21T23:54:47.181Z,2.47
2018-06-21T23:57:15.689Z,2.87
2018-06-21T23:59:44.074Z,1.90
